Time;durP1;ratioP1;P1;durP2;ratioP2;P2;SDS_P1;SDS_P2;PMS_P1;PMS_P2;Temp;Humidity;BMP_temperature;BMP_pressure;BME280_temperature;BME280_humidity;BME280_pressure;Samples;Min_cycle;Max_cycle;Signal;HPM_P1;HPM_P2
2023/01/17 06:29:21;;;;;;;;;1.50;1.50;;;;;17.51;47.92;98213.13;5060017;27;45629;-74
2023/01/17 06:31:46;;;;;;;;;3.00;3.00;;;;;17.87;48.97;98218.63;5045490;28;45478;-75
2023/01/17 06:34:11;;;;;;;;;3.00;3.00;;;;;18.40;48.89;98220.13;5043902;28;47163;-74
2023/01/17 06:36:37;;;;;;;;;4.00;4.00;;;;;18.97;49.20;98225.44;5044132;28;45406;-76
2023/01/17 06:39:02;;;;;;;;;4.25;3.00;;;;;19.56;49.28;98220.50;5048431;28;45474;-76
2023/01/17 06:41:27;;;;;;;;;3.50;3.50;;;;;20.10;48.89;98223.28;5049298;28;45498;-76
2023/01/17 06:43:53;;;;;;;;;4.00;3.00;;;;;20.59;48.47;98217.63;5043398;28;45793;-76
2023/01/17 06:46:19;;;;;;;;;3.00;3.00;;;;;21.05;48.67;98228.56;5047438;28;45517;-77
2023/01/17 06:48:44;;;;;;;;;3.33;3.00;;;;;21.43;47.63;98227.78;5048855;28;46229;-77
2023/01/17 06:51:10;;;;;;;;;4.33;2.67;;;;;21.77;47.84;98226.75;5047128;28;46897;-76
2023/01/17 06:53:35;;;;;;;;;5.67;4.00;;;;;22.07;47.32;98216.16;5043692;28;46359;-77
2023/01/17 06:56:01;;;;;;;;;4.00;4.00;;;;;22.32;47.37;98217.22;5048431;28;45819;-77
2023/01/17 06:58:26;;;;;;;;;5.00;3.67;;;;;22.54;47.23;98217.66;5049120;28;45463;-76
2023/01/17 07:00:51;;;;;;;;;3.00;3.00;;;;;22.74;46.49;98222.03;5047672;28;45499;-77
2023/01/17 07:03:23;;;;;;;;;3.00;3.00;;;;;22.93;46.41;98219.34;5059178;28;45855;-76
2023/01/17 07:05:48;;;;;;;;;4.00;4.00;;;;;23.11;46.25;98226.59;5047938;28;45764;-76
2023/01/17 07:08:15;;;;;;;;;4.00;4.00;;;;;23.26;46.10;98213.50;5042014;28;45648;-78
2023/01/17 07:10:43;;;;;;;;;6.67;5.33;;;;;23.41;45.97;98218.56;5048941;28;45514;-76
2023/01/17 07:13:09;;;;;;;;;4.67;4.67;;;;;23.53;45.57;98215.91;5051997;28;45401;-77
2023/01/17 07:15:34;;;;;;;;;9.00;6.00;;;;;23.64;45.42;98225.13;5054815;28;45549;-76
2023/01/17 07:18:00;;;;;;;;;7.00;5.67;;;;;23.73;45.12;98228.31;5069897;27;47203;-78
2023/01/17 07:20:26;;;;;;;;;4.33;4.33;;;;;23.81;45.15;98214.47;5051793;28;46118;-77
2023/01/17 07:22:51;;;;;;;;;4.33;4.00;;;;;23.86;45.04;98216.47;5050230;28;45566;-77
2023/01/17 07:25:16;;;;;;;;;4.00;4.00;;;;;23.95;44.57;98219.69;5048739;28;45824;-78
2023/01/17 07:27:42;;;;;;;;;3.00;3.00;;;;;24.02;44.65;98219.53;5051403;28;51343;-76
2023/01/17 07:30:08;;;;;;;;;4.50;3.50;;;;;24.05;44.38;98214.50;5047369;28;53752;-76
2023/01/17 07:32:34;;;;;;;;;5.00;5.00;;;;;24.13;44.02;98209.81;5039260;28;45597;-76
2023/01/17 07:34:59;;;;;;;;;5.33;3.67;;;;;24.17;44.11;98205.59;5045291;28;45405;-74
2023/01/17 07:37:25;;;;;;;;;3.67;3.67;;;;;24.20;44.33;98200.50;5048642;28;45838;-75
2023/01/17 07:39:51;;;;;;;;;5.33;4.67;;;;;24.27;43.97;98207.72;5040231;28;46375;-74
2023/01/17 07:42:16;;;;;;;;;3.67;3.67;;;;;24.32;43.67;98210.56;5036235;28;45462;-75
2023/01/17 07:44:43;;;;;;;;;4.00;4.00;;;;;24.36;43.26;98208.19;5036874;28;45512;-75
2023/01/17 07:47:09;;;;;;;;;4.00;3.00;;;;;24.39;43.61;98207.72;5030666;28;46155;-75
2023/01/17 07:49:34;;;;;;;;;4.00;4.00;;;;;24.43;43.63;98208.88;5025194;28;45952;-75
2023/01/17 07:51:59;;;;;;;;;4.67;3.00;;;;;24.45;43.27;98210.31;5031564;28;45717;-75
2023/01/17 07:54:25;;;;;;;;;4.67;4.67;;;;;24.47;43.15;98204.66;5035616;28;45565;-77
2023/01/17 07:56:50;;;;;;;;;4.00;4.00;;;;;24.50;43.05;98211.47;5033205;28;50487;-75
2023/01/17 07:59:16;;;;;;;;;4.00;4.00;;;;;24.52;43.05;98203.94;5039489;28;45623;-75
2023/01/17 08:01:42;;;;;;;;;5.00;4.33;;;;;24.54;42.89;98218.09;5036687;28;45414;-75
2023/01/17 08:04:08;;;;;;;;;4.67;4.67;;;;;24.55;42.89;98209.72;5048048;28;45470;-73
2023/01/17 08:06:33;;;;;;;;;3.00;2.33;;;;;24.58;42.57;98211.13;5037517;28;45534;-73
2023/01/17 08:08:58;;;;;;;;;7.00;4.00;;;;;24.60;42.71;98212.53;5035571;28;45830;-73
2023/01/17 08:11:24;;;;;;;;;4.67;4.67;;;;;24.62;42.71;98206.88;5035202;28;46153;-73
2023/01/17 08:13:56;;;;;;;;;6.00;3.33;;;;;24.65;42.35;98224.56;5042175;28;45443;-73
2023/01/17 08:16:21;;;;;;;;;8.33;4.00;;;;;24.69;42.36;98214.91;5026008;28;46097;-73
2023/01/17 08:18:47;;;;;;;;;8.00;6.00;;;;;24.71;42.26;98221.75;5030089;28;45617;-73
2023/01/17 08:21:15;;;;;;;;;4.67;4.67;;;;;24.74;42.34;98215.81;5034360;28;45651;-73
2023/01/17 08:23:41;;;;;;;;;4.33;2.67;;;;;24.73;42.13;98216.09;5028081;28;45582;-75
2023/01/17 08:26:06;;;;;;;;;7.67;4.67;;;;;24.77;41.94;98211.00;5033224;28;45816;-73
2023/01/17 08:28:31;;;;;;;;;11.33;6.00;;;;;24.79;42.12;98219.72;5041258;28;45511;-73
2023/01/17 08:30:57;;;;;;;;;6.33;6.00;;;;;24.79;41.74;98209.69;5038708;28;45577;-74
2023/01/17 08:33:22;;;;;;;;;7.67;7.00;;;;;24.81;41.49;98210.28;5036359;28;45377;-74
2023/01/17 08:35:53;;;;;;;;;8.67;8.00;;;;;24.88;41.62;98212.09;5042063;28;46439;-73
2023/01/17 08:38:22;;;;;;;;;6.33;6.00;;;;;24.92;42.01;98202.38;5038679;28;45605;-73
2023/01/17 08:40:48;;;;;;;;;8.00;8.00;;;;;24.97;41.80;98208.75;5034762;28;46228;-74
2023/01/17 08:43:13;;;;;;;;;6.33;6.33;;;;;25.00;41.73;98199.28;5039016;28;45472;-74
2023/01/17 08:45:42;;;;;;;;;11.67;9.00;;;;;25.01;41.62;98200.94;5034051;28;45802;-74
2023/01/17 08:48:07;;;;;;;;;12.00;10.00;;;;;25.02;41.63;98193.63;5022070;28;45441;-74
2023/01/17 08:50:32;;;;;;;;;8.33;6.33;;;;;25.00;41.41;98200.13;5034843;28;45458;-74
2023/01/17 08:52:58;;;;;;;;;8.33;7.33;;;;;25.00;41.78;98192.00;5033154;28;45463;-74
2023/01/17 08:55:24;;;;;;;;;5.00;5.00;;;;;25.04;41.14;98202.34;5024269;28;45522;-74
2023/01/17 08:57:49;;;;;;;;;6.33;5.67;;;;;25.05;41.24;98193.97;5035040;28;45455;-74
2023/01/17 09:00:15;;;;;;;;;8.00;7.00;;;;;25.06;41.29;98198.31;5034499;28;45613;-75
2023/01/17 09:02:41;;;;;;;;;8.00;5.00;;;;;25.07;41.34;98196.44;5034815;28;45397;-73
2023/01/17 09:05:06;;;;;;;;;6.67;6.00;;;;;25.06;41.06;98203.75;5033836;28;45361;-72
2023/01/17 09:07:32;;;;;;;;;7.33;6.67;;;;;25.08;41.36;98208.94;5032240;28;45486;-73
2023/01/17 09:09:57;;;;;;;;;6.67;6.67;;;;;25.10;41.68;98201.41;5034021;28;45451;-73
2023/01/17 09:12:23;;;;;;;;;6.00;4.00;;;;;25.14;41.63;98205.28;5035040;28;45339;-74
2023/01/17 09:14:48;;;;;;;;;6.67;5.33;;;;;25.19;41.35;98199.13;5034627;28;45987;-74
2023/01/17 09:17:14;;;;;;;;;6.00;6.00;;;;;25.25;41.00;98200.88;5021182;28;45703;-73
2023/01/17 09:19:43;;;;;;;;;4.67;4.67;;;;;25.29;40.86;98188.47;5034092;28;45428;-73
2023/01/17 09:22:12;;;;;;;;;8.00;5.00;;;;;25.37;41.12;98201.66;5034422;28;45340;-74
2023/01/17 09:24:38;;;;;;;;;8.00;6.00;;;;;25.45;40.94;98197.72;5034895;28;45445;-73
2023/01/17 09:27:03;;;;;;;;;5.67;5.00;;;;;25.51;40.91;98198.66;5034129;28;45407;-74
2023/01/17 09:29:29;;;;;;;;;13.00;12.67;;;;;25.54;40.83;98195.44;5034361;28;45290;-75
2023/01/17 09:31:54;;;;;;;;;12.00;9.33;;;;;25.55;40.96;98196.28;5034717;28;45451;-74
2023/01/17 09:34:20;;;;;;;;;13.00;11.00;;;;;25.56;41.07;98197.94;5033681;28;46685;-73
2023/01/17 09:36:46;;;;;;;;;14.00;11.33;;;;;25.57;40.57;98199.59;5033507;28;45463;-74
2023/01/17 09:39:14;;;;;;;;;11.67;10.67;;;;;25.60;40.70;98201.81;5033804;28;45353;-73
2023/01/17 09:42:10;;;;;;;;;10.33;10.00;;;;;25.63;40.42;98198.63;5033488;28;45465;-73
2023/01/17 09:44:53;;;;;;;;;12.33;12.00;;;;;25.65;40.28;98210.91;5033808;28;46230;-73
2023/01/17 09:47:27;;;;;;;;;11.33;11.33;;;;;25.69;40.83;98213.09;5028588;28;45443;-72
2023/01/17 09:49:59;;;;;;;;;10.67;10.00;;;;;25.69;40.34;98216.66;5033989;28;45389;-72
2023/01/17 09:52:28;;;;;;;;;12.00;11.00;;;;;25.70;40.36;98217.50;5032252;28;45528;-73
2023/01/17 09:54:54;;;;;;;;;12.67;11.00;;;;;25.71;40.59;98219.94;5031741;28;46136;-73
2023/01/17 09:57:37;;;;;;;;;10.00;10.00;;;;;25.73;40.43;98216.97;5022824;28;45340;-73
2023/01/17 10:00:14;;;;;;;;;10.33;9.00;;;;;25.75;40.64;98228.44;5028446;28;45491;-73
2023/01/17 10:03:00;;;;;;;;;9.00;8.67;;;;;25.77;40.45;98234.44;5030898;28;45538;-72
2023/01/17 10:05:38;;;;;;;;;8.00;7.00;;;;;25.79;40.53;98244.00;5025207;28;45518;-72
2023/01/17 10:08:51;;;;;;;;;8.67;7.33;;;;;25.84;40.51;98242.44;5023029;28;45499;-72
2023/01/17 10:11:28;;;;;;;;;9.00;9.00;;;;;25.90;40.08;98246.91;5030743;28;45507;-72
2023/01/17 10:14:12;;;;;;;;;9.67;8.00;;;;;25.94;40.24;98239.09;5030892;28;45566;-73
2023/01/17 10:16:48;;;;;;;;;11.33;9.33;;;;;25.99;39.86;98247.34;5024192;28;45308;-73
2023/01/17 10:19:19;;;;;;;;;15.00;11.00;;;;;26.01;40.25;98240.59;5034742;28;45480;-73
2023/01/17 10:22:18;;;;;;;;;24.00;22.00;;;;;26.00;39.93;98244.34;5029760;28;45317;-74
2023/01/17 10:25:14;;;;;;;;;20.67;14.67;;;;;25.96;39.72;98236.94;5018169;28;45652;-76
2023/01/17 10:28:03;;;;;;;;;29.75;27.25;;;;;25.83;39.87;98240.81;5020137;28;47300;-74
2023/01/17 10:30:36;;;;;;;;;32.75;27.75;;;;;25.71;39.58;98238.97;5016750;28;45538;-74
2023/01/17 10:33:13;;;;;;;;;27.25;23.50;;;;;25.62;39.43;98238.53;5041693;28;45435;-73
2023/01/17 10:35:49;;;;;;;;;29.33;24.33;;;;;25.57;39.51;98238.44;5032092;28;45581;-73
2023/01/17 10:38:17;;;;;;;;;28.67;24.33;;;;;25.51;39.05;98240.19;5034107;28;45639;-74
2023/01/17 10:40:55;;;;;;;;;25.67;23.33;;;;;25.50;39.31;98237.75;5033666;28;45353;-74
2023/01/17 10:43:29;;;;;;;;;23.33;21.33;;;;;25.50;39.13;98237.75;5024032;28;45457;-77
2023/01/17 10:45:56;;;;;;;;;33.25;30.25;;;;;25.53;39.50;98234.53;5030495;28;45491;-78
2023/01/17 10:48:33;;;;;;;;;28.00;26.33;;;;;25.58;39.21;98240.09;5041217;28;45404;-74
2023/01/17 10:51:11;;;;;;;;;26.67;23.00;;;;;25.63;39.27;98233.94;5028097;28;45539;-74
2023/01/17 10:53:57;;;;;;;;;34.67;29.33;;;;;25.67;39.20;98232.38;5035880;28;45333;-74
2023/01/17 10:56:26;;;;;;;;;35.50;29.25;;;;;25.68;39.13;98241.34;5030361;28;45665;-77
2023/01/17 10:59:24;;;;;;;;;37.00;29.00;;;;;25.68;38.97;98236.75;5033668;28;45458;-75
2023/01/17 11:01:49;;;;;;;;;27.25;25.75;;;;;25.67;38.90;98232.38;5029300;28;45437;-77
2023/01/17 11:04:29;;;;;;;;;36.25;28.75;;;;;25.69;39.00;98224.81;5027660;28;45439;-76
2023/01/17 11:07:13;;;;;;;;;28.00;26.00;;;;;25.71;39.25;98214.50;5032878;28;45699;-76
2023/01/17 11:09:46;;;;;;;;;26.67;25.33;;;;;25.74;39.02;98222.19;5027471;28;45498;-76
2023/01/17 11:12:23;;;;;;;;;27.33;22.67;;;;;25.73;39.21;98217.81;5033572;28;45578;-76
2023/01/17 11:15:24;;;;;;;;;24.67;22.00;;;;;25.73;38.89;98208.84;5030412;28;45517;-76
2023/01/17 11:18:00;;;;;;;;;27.00;25.00;;;;;25.73;38.61;98203.41;5012939;28;45556;-76
2023/01/17 11:20:28;;;;;;;;;23.67;22.67;;;;;25.76;38.94;98217.31;4995422;28;46697;-75
2023/01/17 11:23:05;;;;;;;;;26.67;20.00;;;;;25.78;39.13;98209.75;5014173;28;45867;-75
2023/01/17 11:25:34;;;;;;;;;23.00;19.67;;;;;25.82;38.74;98210.09;5007842;28;45744;-76
2023/01/17 11:28:07;;;;;;;;;28.00;23.00;;;;;25.85;38.68;98209.59;5019148;28;45566;-75
2023/01/17 11:30:33;;;;;;;;;23.00;21.33;;;;;25.89;38.87;98199.06;5017440;28;46141;-75
2023/01/17 11:33:00;;;;;;;;;25.67;21.33;;;;;25.88;38.59;98192.78;5012794;28;45984;-76
2023/01/17 11:35:29;;;;;;;;;24.33;20.33;;;;;25.88;38.66;98211.00;5012745;28;45481;-76
2023/01/17 11:38:06;;;;;;;;;22.33;20.33;;;;;25.86;38.82;98203.09;4999106;28;45645;-75
2023/01/17 11:40:37;;;;;;;;;23.33;20.67;;;;;25.87;38.99;98203.94;5016237;28;45823;-75
2023/01/17 11:43:13;;;;;;;;;24.33;22.67;;;;;25.86;38.77;98189.50;5012459;28;45618;-76
2023/01/17 11:45:39;;;;;;;;;21.67;18.67;;;;;25.86;38.46;98199.53;5011247;28;45445;-76
2023/01/17 11:48:07;;;;;;;;;19.00;18.00;;;;;25.85;38.59;98181.59;5012506;28;45753;-76
2023/01/17 11:50:34;;;;;;;;;19.00;17.67;;;;;25.83;38.33;98192.72;5015328;28;46385;-75
2023/01/17 11:53:35;;;;;;;;;20.00;18.33;;;;;25.81;38.77;98189.44;5033059;28;45736;-76
2023/01/17 11:56:08;;;;;;;;;20.67;19.67;;;;;25.78;38.64;98185.31;5030495;28;45794;-77
2023/01/17 11:58:38;;;;;;;;;22.67;19.00;;;;;25.75;38.21;98187.69;5049252;28;45395;-77
2023/01/17 12:01:17;;;;;;;;;22.67;20.67;;;;;25.72;38.89;98180.03;5031544;28;45485;-77
2023/01/17 12:04:06;;;;;;;;;23.00;18.00;;;;;25.68;38.89;98178.88;5035869;28;45819;-76
2023/01/17 12:06:34;;;;;;;;;24.00;18.67;;;;;25.64;38.41;98179.38;5021961;28;45433;-78
2023/01/17 12:09:32;;;;;;;;;24.00;20.67;;;;;25.62;38.17;98175.22;5027238;28;45440;-77
2023/01/17 12:15:24;;;;;;;;;20.33;17.67;;;;;25.60;38.27;98169.22;5033260;28;45464;-75
2023/01/17 12:17:55;;;;;;;;;23.00;21.33;;;;;25.59;38.57;98167.59;5022662;28;45470;-76
2023/01/17 12:20:48;;;;;;;;;21.33;19.33;;;;;25.58;38.45;98171.38;5033200;28;46598;-77
2023/01/17 12:23:43;;;;;;;;;23.67;18.33;;;;;25.57;38.50;98172.44;4946672;28;46237;-76
2023/01/17 12:26:26;;;;;;;;;20.00;19.00;;;;;25.54;38.43;98165.56;4952989;28;45573;-75
2023/01/17 12:29:06;;;;;;;;;22.00;17.33;;;;;25.52;38.44;98156.84;4945246;28;45568;-75
2023/01/17 12:31:37;;;;;;;;;22.00;17.67;;;;;25.49;38.41;98160.88;4930904;28;45653;-75
2023/01/17 12:34:26;;;;;;;;;21.67;18.67;;;;;25.46;38.40;98157.84;4943502;28;46262;-74
2023/01/17 12:37:33;;;;;;;;;20.00;16.00;;;;;25.44;38.26;98151.81;4934030;28;45523;-74
2023/01/17 12:40:01;;;;;;;;;22.33;16.67;;;;;25.42;38.36;98154.75;4934677;28;45446;-76
2023/01/17 12:42:34;;;;;;;;;20.00;18.00;;;;;25.40;38.46;98151.47;4934947;28;45494;-74
2023/01/17 12:45:05;;;;;;;;;27.00;20.00;;;;;25.39;38.09;98144.41;4932165;28;46161;-74
2023/01/17 12:47:36;;;;;;;;;20.33;18.00;;;;;25.38;38.66;98150.91;4934453;28;45904;-74
2023/01/17 12:50:19;;;;;;;;;21.00;16.33;;;;;25.36;38.37;98148.44;4924017;28;45574;-73
2023/01/17 12:52:59;;;;;;;;;16.33;16.00;;;;;25.38;38.48;98150.91;4932459;28;45507;-73
2023/01/17 12:56:13;;;;;;;;;12.33;11.00;;;;;25.42;38.41;98151.25;4930528;28;45478;-72
2023/01/17 12:58:43;;;;;;;;;19.67;13.67;;;;;25.46;38.25;98141.53;4932647;28;45578;-72
2023/01/17 13:01:38;;;;;;;;;16.67;15.00;;;;;25.52;38.55;98143.28;5000974;28;45409;-72
2023/01/17 13:04:24;;;;;;;;;15.67;12.33;;;;;25.59;38.44;98143.94;5008180;28;45809;-72
2023/01/17 13:06:59;;;;;;;;;19.33;17.67;;;;;25.65;38.58;98140.28;5010545;28;46535;-72
2023/01/17 13:09:31;;;;;;;;;16.00;14.33;;;;;25.73;38.38;98135.50;5011302;28;45472;-74
2023/01/17 13:12:02;;;;;;;;;16.67;14.33;;;;;25.81;38.39;98142.41;5003038;28;45854;-74
2023/01/17 13:14:27;;;;;;;;;13.00;12.67;;;;;25.87;38.66;98142.25;5015040;28;45440;-74
2023/01/17 13:17:17;;;;;;;;;17.33;15.33;;;;;25.95;38.43;98140.19;5011433;28;45950;-74
2023/01/17 13:19:53;;;;;;;;;16.00;13.33;;;;;25.97;38.28;98144.31;5012119;28;45567;-74
2023/01/17 13:22:21;;;;;;;;;16.00;16.00;;;;;26.04;38.63;98141.44;5011828;28;45435;-74
2023/01/17 13:25:05;;;;;;;;;15.00;12.33;;;;;26.08;38.61;98147.19;5012528;28;45416;-73
2023/01/17 13:27:38;;;;;;;;;12.00;12.00;;;;;26.14;38.24;98148.91;5024208;28;47157;-73
2023/01/17 13:30:27;;;;;;;;;14.00;14.00;;;;;26.16;37.98;98142.13;5023901;28;45482;-73
2023/01/17 13:33:22;;;;;;;;;13.33;13.00;;;;;26.16;38.56;98144.84;5030735;28;46159;-73
2023/01/17 13:36:04;;;;;;;;;11.33;11.33;;;;;26.15;38.00;98145.94;5030752;28;45872;-74
2023/01/17 13:38:56;;;;;;;;;13.67;12.00;;;;;26.12;37.98;98141.00;5040384;28;47027;-74
2023/01/17 13:41:43;;;;;;;;;12.00;10.67;;;;;26.10;38.61;98151.31;5031812;28;45440;-73
2023/01/17 13:44:20;;;;;;;;;72.25;55.50;;;;;26.05;38.05;98146.63;5024189;28;45404;-79
2023/01/17 15:09:43;;;;;;;;;85.00;76.67;;;;;18.99;41.70;98225.19;5082289;27;45406;-79
2023/01/17 15:12:12;;;;;;;;;78.75;62.75;;;;;19.31;42.56;98230.97;5070354;27;45442;-76
2023/01/17 15:14:43;;;;;;;;;77.75;66.25;;;;;19.83;42.80;98230.47;5073467;27;45562;-76
2023/01/17 15:17:23;;;;;;;;;79.75;64.25;;;;;20.35;42.62;98230.72;5058534;28;45428;-77
2023/01/17 15:19:54;;;;;;;;;75.50;64.00;;;;;20.96;42.92;98246.81;5059191;28;45891;-76
2023/01/17 15:22:20;;;;;;;;;73.00;60.50;;;;;21.44;42.58;98242.06;5069888;27;45735;-75
2023/01/17 15:24:47;;;;;;;;;74.75;60.50;;;;;21.88;42.37;98234.19;5070297;27;45383;-74
2023/01/17 15:27:15;;;;;;;;;75.00;58.75;;;;;22.34;42.06;98247.53;5063295;27;45494;-76
2023/01/17 15:29:43;;;;;;;;;73.00;60.25;;;;;22.72;41.99;98243.88;5069486;27;47002;-77
2023/01/17 15:32:21;;;;;;;;;73.25;60.00;;;;;23.08;41.64;98254.09;5064739;28;45571;-77
2023/01/17 15:34:49;;;;;;;;;73.50;57.25;;;;;23.37;41.53;98238.16;5068859;27;45395;-77
2023/01/17 15:37:33;;;;;;;;;70.50;56.50;;;;;23.65;41.47;98243.00;5062220;27;45528;-76
2023/01/17 15:40:18;;;;;;;;;72.50;56.50;;;;;23.92;41.38;98247.22;5073572;27;46246;-77
2023/01/17 15:42:50;;;;;;;;;69.50;53.00;;;;;24.12;41.04;98246.94;5070460;28;45401;-76
2023/01/17 15:45:19;;;;;;;;;72.50;56.25;;;;;24.32;40.76;98256.63;5068729;27;45449;-76
2023/01/17 15:47:45;;;;;;;;;67.25;51.50;;;;;24.48;40.81;98249.66;5064439;27;45474;-75
2023/01/17 15:50:21;;;;;;;;;64.50;51.25;;;;;24.64;40.68;98255.47;5068011;28;45448;-75
2023/01/17 15:52:52;;;;;;;;;66.00;50.00;;;;;24.78;40.82;98258.75;5056841;28;46665;-75
2023/01/17 15:55:23;;;;;;;;;65.25;52.00;;;;;24.91;40.60;98263.13;5063668;28;45637;-75
2023/01/17 15:57:49;;;;;;;;;66.00;50.50;;;;;25.05;40.37;98261.81;5068593;28;45355;-74
2023/01/17 16:00:20;;;;;;;;;64.25;50.50;;;;;25.17;40.01;98264.50;5073782;27;46040;-76
2023/01/17 16:02:48;;;;;;;;;63.50;50.00;;;;;25.30;40.03;98265.31;5071742;27;45551;-78
2023/01/17 16:05:22;;;;;;;;;63.50;50.75;;;;;25.43;39.96;98266.91;5068819;28;46001;-74
2023/01/17 16:07:52;;;;;;;;;69.25;53.50;;;;;25.50;39.69;98273.84;5073861;27;45426;-80
2023/01/17 16:10:20;;;;;;;;;82.00;68.25;;;;;25.47;39.23;98279.75;5090627;27;48269;-78
2023/01/17 16:12:47;;;;;;;;;78.25;58.00;;;;;25.45;39.44;98281.06;5079144;27;45775;-74
2023/01/17 16:15:12;;;;;;;;;76.00;63.50;;;;;25.43;39.23;98284.06;5088684;27;45454;-78
2023/01/17 16:17:41;;;;;;;;;72.50;59.75;;;;;25.46;39.35;98288.16;5082997;27;45571;-76
2023/01/17 16:20:14;;;;;;;;;74.25;61.50;;;;;25.51;39.16;98288.28;5081962;27;45921;-76
2023/01/17 16:22:41;;;;;;;;;76.00;61.25;;;;;25.58;38.84;98296.31;5070330;28;45340;-77
2023/01/17 16:25:15;;;;;;;;;76.25;61.75;;;;;25.62;39.00;98295.56;5073857;28;45386;-76
2023/01/17 16:27:42;;;;;;;;;73.50;59.50;;;;;25.70;38.76;98299.78;5063255;28;45595;-75
2023/01/17 16:30:09;;;;;;;;;75.75;57.25;;;;;25.76;38.89;98306.16;5075191;28;45840;-76
2023/01/17 16:32:35;;;;;;;;;71.25;55.75;;;;;25.83;38.74;98309.53;5077884;27;45539;-77
2023/01/17 16:35:00;;;;;;;;;72.50;55.50;;;;;25.90;38.71;98310.22;5073251;28;47739;-74
2023/01/17 16:37:25;;;;;;;;;57.50;43.25;;;;;25.97;38.82;98315.53;5068969;28;45745;-73
2023/01/17 16:39:50;;;;;;;;;65.25;50.50;;;;;26.08;38.85;98324.69;5075091;28;46368;-73
2023/01/17 16:42:16;;;;;;;;;61.25;48.00;;;;;26.16;38.57;98329.72;5075345;28;45418;-75
2023/01/17 16:44:41;;;;;;;;;64.00;49.75;;;;;26.22;38.29;98338.78;5066999;27;47086;-75
2023/01/17 16:47:06;;;;;;;;;61.75;50.00;;;;;26.27;38.46;98335.34;5076412;27;45447;-76
2023/01/17 16:49:32;;;;;;;;;55.50;45.75;;;;;26.27;38.37;98330.75;5071546;28;46450;-76
2023/01/17 16:51:58;;;;;;;;;48.25;38.75;;;;;26.26;38.51;98339.97;5076909;27;45438;-80
2023/01/17 16:54:24;;;;;;;;;42.00;32.75;;;;;26.25;38.06;98338.34;5065804;28;45914;-81
2023/01/17 16:56:49;;;;;;;;;40.25;34.25;;;;;26.20;38.03;98345.53;5070289;28;45749;-80
2023/01/17 16:59:15;;;;;;;;;37.00;32.25;;;;;26.11;37.59;98351.38;5074392;27;45514;-80
2023/01/17 17:01:40;;;;;;;;;36.00;32.75;;;;;26.01;37.34;98353.91;5056999;28;45728;-81
2023/01/17 17:04:05;;;;;;;;;37.25;33.00;;;;;25.90;37.54;98356.44;5076112;28;45558;-81
2023/01/17 17:06:31;;;;;;;;;40.50;31.25;;;;;25.85;37.83;98352.78;5074470;28;50275;-81
2023/01/17 17:08:58;;;;;;;;;33.50;29.00;;;;;25.79;37.57;98354.59;5076096;28;46093;-83
2023/01/17 17:11:24;;;;;;;;;37.25;31.25;;;;;25.74;37.45;98362.59;5064098;28;45438;-81
2023/01/17 17:13:50;;;;;;;;;31.75;29.25;;;;;25.69;37.86;98363.34;5067951;27;45631;-82
2023/01/17 17:16:19;;;;;;;;;39.25;31.50;;;;;25.65;37.95;98367.59;5068868;27;45451;-81
2023/01/17 17:18:52;;;;;;;;;36.50;30.25;;;;;25.60;37.68;98370.22;5068724;28;45407;-74
2023/01/17 17:21:17;;;;;;;;;35.25;29.25;;;;;25.57;37.69;98384.25;5075659;27;45551;-75
2023/01/17 17:23:42;;;;;;;;;36.50;32.50;;;;;25.57;37.69;98382.38;5074183;27;45454;-75
2023/01/17 17:26:07;;;;;;;;;32.00;28.75;;;;;25.60;37.77;98384.63;5071382;28;46120;-75
2023/01/17 17:28:34;;;;;;;;;26.75;23.00;;;;;25.65;37.80;98375.75;5074783;28;45444;-76
2023/01/17 17:31:01;;;;;;;;;33.75;30.25;;;;;25.71;37.92;98388.38;5067350;27;45756;-75
2023/01/17 17:33:26;;;;;;;;;36.25;31.25;;;;;25.76;38.10;98393.91;5068363;27;45732;-75
2023/01/17 17:35:52;;;;;;;;;34.25;29.00;;;;;25.78;37.77;98389.06;5069055;27;46033;-77
2023/01/17 17:38:17;;;;;;;;;31.00;29.00;;;;;25.84;37.68;98398.16;5067122;27;47726;-74
2023/01/17 17:40:44;;;;;;;;;33.25;29.75;;;;;25.85;37.85;98399.81;5070114;27;45406;-75
2023/01/17 17:43:10;;;;;;;;;38.00;32.25;;;;;25.87;38.11;98405.81;5074084;28;45544;-75
2023/01/17 17:45:35;;;;;;;;;36.25;28.25;;;;;25.88;37.70;98404.72;5068934;27;45623;-77
2023/01/17 17:48:01;;;;;;;;;35.25;30.50;;;;;25.90;38.21;98407.22;5071317;28;45499;-76
2023/01/17 17:50:26;;;;;;;;;34.67;26.00;;;;;25.92;37.73;98408.63;5074987;28;45389;-76
2023/01/17 17:52:52;;;;;;;;;32.75;28.25;;;;;25.93;38.16;98414.91;5073156;28;45659;-76
2023/01/17 17:55:17;;;;;;;;;33.67;26.67;;;;;25.91;38.18;98409.69;5072653;28;45994;-74
2023/01/17 17:57:44;;;;;;;;;27.33;24.67;;;;;25.91;37.82;98415.13;5074263;27;45950;-77
2023/01/17 18:00:10;;;;;;;;;28.75;25.00;;;;;25.91;38.17;98417.84;5069180;28;45442;-74
2023/01/17 18:02:36;;;;;;;;;37.33;28.00;;;;;25.91;38.07;98417.00;5071520;28;45592;-72
2023/01/17 18:05:02;;;;;;;;;31.33;24.33;;;;;25.90;37.50;98423.53;5070792;28;45465;-72
2023/01/17 18:07:30;;;;;;;;;31.00;23.67;;;;;25.90;37.94;98432.50;5075338;27;45950;-73
2023/01/17 18:09:56;;;;;;;;;22.33;20.00;;;;;25.91;37.88;98436.88;5070863;27;45571;-72
2023/01/17 18:12:21;;;;;;;;;22.67;19.00;;;;;25.92;37.86;98438.53;5070085;28;45691;-73
2023/01/17 18:14:46;;;;;;;;;29.33;22.00;;;;;25.94;38.08;98441.00;5069210;27;45450;-74
2023/01/17 18:17:14;;;;;;;;;26.00;23.67;;;;;25.97;37.97;98443.25;5059061;28;46012;-73
2023/01/17 18:19:41;;;;;;;;;24.00;19.67;;;;;25.98;38.24;98457.66;5064343;27;45629;-73
2023/01/17 18:22:06;;;;;;;;;23.67;20.67;;;;;25.98;37.81;98458.47;5074501;28;45357;-74
2023/01/17 18:24:31;;;;;;;;;20.33;18.33;;;;;25.98;37.81;98457.66;5067861;28;45381;-73
2023/01/17 18:26:57;;;;;;;;;25.33;20.00;;;;;25.98;37.81;98460.38;5066726;27;53150;-74
2023/01/17 18:29:25;;;;;;;;;23.00;18.67;;;;;25.99;37.89;98465.56;5062953;28;45352;-75
2023/01/17 18:31:51;;;;;;;;;21.67;16.00;;;;;25.97;37.85;98464.16;5074633;28;45411;-75
2023/01/17 18:34:22;;;;;;;;;16.33;14.33;;;;;26.00;38.08;98472.66;5062015;28;45501;-75
2023/01/17 18:36:48;;;;;;;;;16.67;14.00;;;;;26.00;37.97;98472.66;5069449;28;46191;-75
2023/01/17 18:39:25;;;;;;;;;18.00;15.67;;;;;26.01;37.77;98477.03;5075101;28;45401;-76
2023/01/17 18:41:51;;;;;;;;;13.67;11.00;;;;;26.02;38.13;98475.13;5074395;27;45419;-75
2023/01/17 18:44:19;;;;;;;;;9.00;9.00;;;;;25.99;37.78;98478.34;5060308;27;45605;-74
2023/01/17 18:46:45;;;;;;;;;14.33;11.67;;;;;25.95;37.44;98491.56;5073378;27;47256;-76
2023/01/17 18:49:11;;;;;;;;;12.33;11.00;;;;;25.92;37.88;98487.44;5064358;27;45408;-73
2023/01/17 18:51:37;;;;;;;;;14.00;11.00;;;;;25.91;37.74;98487.66;5057593;27;45935;-72
2023/01/17 18:54:03;;;;;;;;;11.33;10.67;;;;;25.90;37.86;98492.28;5071607;28;48459;-72
2023/01/17 18:56:33;;;;;;;;;12.33;9.00;;;;;25.90;37.81;98505.88;5061190;28;45381;-72
2023/01/17 18:58:59;;;;;;;;;12.33;12.00;;;;;25.90;38.04;98499.59;5062832;27;45462;-73
2023/01/17 19:01:27;;;;;;;;;12.00;10.67;;;;;25.88;37.84;98497.13;5065340;27;45422;-73
2023/01/17 19:03:56;;;;;;;;;11.00;9.67;;;;;25.86;37.94;98495.72;5060733;27;45522;-73
2023/01/17 19:06:24;;;;;;;;;9.33;9.33;;;;;25.84;37.69;98498.69;5068499;27;45585;-72
2023/01/17 19:08:52;;;;;;;;;10.33;8.00;;;;;25.83;37.70;98502.44;5066066;28;45480;-73
2023/01/17 19:11:19;;;;;;;;;9.00;9.00;;;;;25.79;37.86;98502.09;5066168;27;45361;-72
2023/01/17 19:13:45;;;;;;;;;8.33;8.33;;;;;25.79;37.51;98504.03;5068435;27;45499;-79
2023/01/17 19:16:16;;;;;;;;;16.67;15.00;;;;;25.78;37.85;98530.34;5062695;28;45758;-74
2023/01/17 19:18:42;;;;;;;;;9.33;9.00;;;;;25.76;37.57;98528.94;5070259;27;45368;-74
2023/01/17 19:21:19;;;;;;;;;9.00;8.00;;;;;25.75;37.33;98530.81;5072399;28;45460;-73
2023/01/17 19:23:44;;;;;;;;;13.67;9.00;;;;;25.73;37.43;98534.84;5060975;27;45426;-73
2023/01/17 19:26:12;;;;;;;;;12.67;9.33;;;;;25.72;37.55;98535.91;5067256;27;46124;-73
2023/01/17 19:28:42;;;;;;;;;9.33;8.00;;;;;25.71;37.47;98532.34;5069425;28;45420;-73
2023/01/17 19:31:12;;;;;;;;;8.67;8.33;;;;;25.71;37.51;98540.50;5073941;28;45453;-72
2023/01/17 19:33:39;;;;;;;;;8.33;8.33;;;;;25.73;37.76;98545.69;5069282;27;45368;-74